Time;durP1;ratioP1;P1;durP2;ratioP2;P2;SDS_P1;SDS_P2;PMS_P1;PMS_P2;Temp;Humidity;BMP_temperature;BMP_pressure;BME280_temperature;BME280_humidity;BME280_pressure;Samples;Min_cycle;Max_cycle;Signal;HPM_P1;HPM_P2
2022/05/01 00:00:45;;;;;;;16.27;8.77;;;;;;;9.06;100.00;102478.69;5060434;28;20028;-84
2022/05/01 00:03:30;;;;;;;13.95;8.75;;;;;;;9.05;100.00;102474.34;5059316;28;20028;-84
2022/05/01 00:05:58;;;;;;;13.73;8.80;;;;;;;8.99;100.00;102474.78;5060231;28;20024;-84
2022/05/01 00:08:23;;;;;;;11.77;8.82;;;;;;;8.97;100.00;102469.53;5060089;28;20080;-84
2022/05/01 00:10:48;;;;;;;14.68;8.85;;;;;;;8.92;100.00;102464.53;5059951;28;20497;-83
2022/05/01 00:13:15;;;;;;;18.95;9.13;;;;;;;8.92;100.00;102463.69;5060323;28;20024;-84
2022/05/01 00:15:40;;;;;;;14.05;9.00;;;;;;;8.92;100.00;102466.38;5060656;28;20709;-84
2022/05/01 00:18:06;;;;;;;15.65;9.82;;;;;;;8.91;100.00;102465.53;5060607;28;20016;-84
2022/05/01 00:20:31;;;;;;;14.05;9.07;;;;;;;8.90;100.00;102471.81;5060582;28;20024;-84
2022/05/01 00:22:56;;;;;;;14.02;9.23;;;;;;;8.90;100.00;102465.63;5062477;28;20032;-83
2022/05/01 00:25:22;;;;;;;16.27;9.52;;;;;;;8.89;100.00;102472.78;5060321;28;20552;-84
2022/05/01 00:27:47;;;;;;;14.20;9.82;;;;;;;8.88;100.00;102470.22;5061237;28;20271;-84
2022/05/01 00:30:13;;;;;;;17.67;9.40;;;;;;;8.90;100.00;102466.47;5073545;28;20024;-84
2022/05/01 00:38:07;;;;;;;17.15;9.80;;;;;;;8.83;100.00;102469.69;5081239;28;20516;-84
2022/05/01 00:40:32;;;;;;;15.25;10.43;;;;;;;8.80;100.00;102468.09;5049868;28;20037;-84
2022/05/01 00:43:02;;;;;;;15.27;9.93;;;;;;;8.76;100.00;102456.81;5040841;28;20025;-83
2022/05/01 00:45:27;;;;;;;21.27;10.90;;;;;;;8.76;100.00;102462.13;5022332;28;20029;-83
2022/05/01 00:47:53;;;;;;;15.30;9.88;;;;;;;8.75;100.00;102465.75;5039407;28;20025;-84
2022/05/01 00:50:19;;;;;;;19.25;10.52;;;;;;;8.78;100.00;102454.03;5040044;28;20121;-83
2022/05/01 00:52:45;;;;;;;19.27;10.50;;;;;;;8.76;100.00;102453.31;5039801;28;20024;-84
2022/05/01 00:55:10;;;;;;;22.15;10.27;;;;;;;8.80;100.00;102454.78;5038765;28;20033;-83
2022/05/01 00:57:35;;;;;;;16.38;10.60;;;;;;;8.77;100.00;102444.34;5039875;28;20032;-83
2022/05/01 01:00:01;;;;;;;16.95;10.48;;;;;;;8.78;100.00;102448.72;5042388;28;20535;-83
2022/05/01 01:02:26;;;;;;;15.02;9.77;;;;;;;8.77;100.00;102442.53;5058003;28;20227;-83
2022/05/01 01:04:51;;;;;;;16.40;10.05;;;;;;;8.75;100.00;102443.59;5058715;28;20033;-83
2022/05/01 01:07:18;;;;;;;17.00;10.55;;;;;;;8.73;100.00;102445.53;5059877;28;20382;-84
2022/05/01 01:09:43;;;;;;;16.33;10.65;;;;;;;8.72;100.00;102446.47;5035153;28;20055;-83
2022/05/01 01:15:09;;;;;;;20.30;10.90;;;;;;;8.67;100.00;102445.94;5021815;28;20044;-83
2022/05/01 01:17:41;;;;;;;16.65;10.35;;;;;;;8.66;100.00;102439.78;5021007;28;20056;-84
2022/05/01 01:20:17;;;;;;;19.45;10.70;;;;;;;8.68;100.00;102451.16;5033635;28;20037;-83
2022/05/01 01:22:48;;;;;;;16.38;10.85;;;;;;;8.64;100.00;102444.38;5039182;28;20259;-83
2022/05/01 01:25:17;;;;;;;16.75;10.95;;;;;;;8.57;100.00;102441.28;5038349;28;20029;-85
2022/05/01 01:27:43;;;;;;;17.00;11.10;;;;;;;8.48;100.00;102446.41;5026749;28;20171;-83
2022/05/01 01:32:54;;;;;;;19.05;10.73;;;;;;;8.45;100.00;102444.78;5019039;28;20040;-84
2022/05/01 01:35:23;;;;;;;16.45;10.50;;;;;;;8.41;100.00;102444.13;5001105;28;20026;-84
2022/05/01 01:37:58;;;;;;;17.75;11.00;;;;;;;8.35;100.00;102441.03;5019372;28;20507;-84
2022/05/01 01:40:27;;;;;;;16.67;11.07;;;;;;;8.32;100.00;102446.59;5016913;28;20122;-84
2022/05/01 01:42:55;;;;;;;22.23;10.88;;;;;;;8.32;100.00;102454.59;5020394;28;20163;-84
2022/05/01 01:45:20;;;;;;;16.17;10.80;;;;;;;8.29;100.00;102441.50;5017898;28;20021;-84
2022/05/01 01:47:49;;;;;;;15.93;10.30;;;;;;;8.29;100.00;102442.34;5017562;28;20056;-82
2022/05/01 01:50:17;;;;;;;20.00;10.75;;;;;;;8.29;100.00;102439.66;5020274;28;20499;-84
2022/05/01 01:52:46;;;;;;;15.77;10.75;;;;;;;8.27;100.00;102440.75;5019275;28;20107;-84
2022/05/01 01:55:15;;;;;;;17.45;11.05;;;;;;;8.25;100.00;102439.97;5018111;28;20092;-84
2022/05/01 01:57:41;;;;;;;15.43;10.52;;;;;;;8.28;100.00;102443.31;5020329;28;20025;-83
2022/05/01 02:00:07;;;;;;;16.00;10.82;;;;;;;8.22;100.00;102439.25;5019781;28;20033;-83
2022/05/01 02:02:32;;;;;;;18.63;10.95;;;;;;;8.16;100.00;102445.00;5019204;28;20029;-83
2022/05/01 02:04:58;;;;;;;18.05;11.27;;;;;;;8.10;100.00;102428.63;5019325;28;20416;-84
2022/05/01 02:07:23;;;;;;;22.92;11.25;;;;;;;8.07;100.00;102434.97;5017942;28;20036;-84
2022/05/01 02:09:49;;;;;;;16.77;11.02;;;;;;;8.01;100.00;102433.59;5048647;28;20513;-84
2022/05/01 02:12:14;;;;;;;19.73;11.40;;;;;;;7.97;100.00;102437.41;5058282;28;20032;-84
2022/05/01 02:14:39;;;;;;;16.73;11.07;;;;;;;7.98;100.00;102435.63;5059209;28;20024;-84
2022/05/01 02:17:05;;;;;;;20.25;11.65;;;;;;;7.96;100.00;102432.19;5059869;28;20029;-83
2022/05/01 02:19:30;;;;;;;17.85;11.63;;;;;;;7.94;100.00;102435.00;5039964;28;20028;-84
2022/05/01 02:21:55;;;;;;;21.00;11.93;;;;;;;7.91;100.00;102439.63;5058978;28;20040;-84
2022/05/01 02:24:23;;;;;;;18.67;11.63;;;;;;;7.89;100.00;102431.78;5058729;28;20016;-84
2022/05/01 02:26:49;;;;;;;19.90;11.40;;;;;;;7.87;100.00;102428.34;5058090;28;20032;-84
2022/05/01 02:29:14;;;;;;;23.60;11.27;;;;;;;7.89;100.00;102430.91;5040816;28;20116;-83
2022/05/01 02:31:41;;;;;;;21.98;11.73;;;;;;;7.90;100.00;102424.66;5057872;28;20048;-84
2022/05/01 02:34:07;;;;;;;19.00;12.20;;;;;;;7.89;100.00;102423.81;5058226;28;20402;-83
2022/05/01 02:36:33;;;;;;;16.65;11.82;;;;;;;7.85;100.00;102414.31;5040121;28;20244;-83
2022/05/01 02:38:58;;;;;;;18.83;11.57;;;;;;;7.83;100.00;102411.75;5057894;28;20028;-83
2022/05/01 02:41:24;;;;;;;18.95;11.90;;;;;;;7.83;100.00;102417.06;5057819;28;20091;-83
2022/05/01 02:43:49;;;;;;;20.90;11.60;;;;;;;7.77;100.00;102404.22;5058699;28;20253;-83
2022/05/01 02:46:15;;;;;;;21.33;11.52;;;;;;;7.71;100.00;102417.91;5058179;28;20024;-84
2022/05/01 02:48:41;;;;;;;21.52;11.52;;;;;;;7.65;100.00;102410.34;5057716;28;20054;-84
2022/05/01 02:51:06;;;;;;;18.95;11.73;;;;;;;7.57;100.00;102410.00;5057702;28;20020;-84
2022/05/01 02:53:32;;;;;;;19.52;12.23;;;;;;;7.43;100.00;102406.50;5039686;28;20176;-85
2022/05/01 02:56:01;;;;;;;18.85;12.10;;;;;;;7.33;100.00;102400.06;5057879;28;20139;-84
2022/05/01 02:58:28;;;;;;;19.55;11.98;;;;;;;7.30;100.00;102416.22;5058620;28;20024;-84
2022/05/01 03:00:53;;;;;;;22.88;12.93;;;;;;;7.22;100.00;102408.75;5057578;28;20475;-84
2022/05/01 03:03:19;;;;;;;20.13;12.05;;;;;;;7.12;100.00;102402.31;5057997;28;20088;-84
2022/05/01 03:05:44;;;;;;;19.92;12.35;;;;;;;7.10;100.00;102399.75;5057743;28;20108;-84
2022/05/01 03:08:12;;;;;;;22.20;12.02;;;;;;;7.08;100.00;102400.84;5036176;28;20017;-84
2022/05/01 03:10:38;;;;;;;19.00;12.20;;;;;;;7.02;100.00;102404.72;5037571;28;20550;-83
2022/05/01 03:13:03;;;;;;;24.70;12.48;;;;;;;6.98;100.00;102407.69;5037424;28;20029;-84
2022/05/01 03:15:28;;;;;;;26.35;12.68;;;;;;;6.93;100.00;102402.66;5019830;28;20104;-84
2022/05/01 03:23:21;;;;;;;22.20;12.95;;;;;;;6.90;100.00;102392.22;5042073;28;20110;-83
2022/05/01 03:25:47;;;;;;;20.20;12.55;;;;;;;6.81;100.00;102391.03;5040982;28;20048;-83
2022/05/01 03:28:12;;;;;;;20.77;13.18;;;;;;;6.76;100.00;102393.13;5042452;28;20025;-83
2022/05/01 03:30:37;;;;;;;23.52;13.75;;;;;;;6.73;100.00;102390.66;5041476;28;20033;-83
2022/05/01 03:33:05;;;;;;;25.38;14.27;;;;;;;6.72;100.00;102395.13;5041092;28;20086;-84
2022/05/01 03:35:31;;;;;;;23.92;14.85;;;;;;;6.66;100.00;102395.50;5040615;28;20119;-84
2022/05/01 03:37:56;;;;;;;22.70;14.73;;;;;;;6.60;100.00;102390.59;5042094;28;20158;-84
2022/05/01 03:40:22;;;;;;;29.48;14.60;;;;;;;6.52;100.00;102380.47;5037076;28;20027;-84
2022/05/01 03:42:47;;;;;;;24.38;14.30;;;;;;;6.43;100.00;102388.13;5042516;28;20039;-85
2022/05/01 03:45:13;;;;;;;19.92;13.93;;;;;;;6.33;100.00;102385.19;5041735;28;20028;-84
2022/05/01 03:47:38;;;;;;;23.27;14.15;;;;;;;6.29;100.00;102389.00;5041299;28;20024;-82
2022/05/01 03:50:07;;;;;;;26.42;15.10;;;;;;;6.21;100.00;102386.84;5023904;28;20498;-84
2022/05/01 03:52:35;;;;;;;26.20;14.60;;;;;;;6.19;100.00;102393.16;5040424;28;20028;-85
2022/05/01 03:55:00;;;;;;;24.38;14.60;;;;;;;6.12;100.00;102385.56;5022667;28;20554;-84
2022/05/01 03:57:26;;;;;;;24.17;14.77;;;;;;;6.13;100.00;102389.94;5049373;28;20119;-84
2022/05/01 03:59:54;;;;;;;29.40;16.83;;;;;;;6.05;100.00;102388.72;5050162;28;20109;-83
2022/05/01 04:02:20;;;;;;;26.08;16.63;;;;;;;5.98;100.00;102389.06;5065429;28;20027;-82
2022/05/01 04:04:45;;;;;;;26.35;15.68;;;;;;;6.01;100.00;102393.34;5064448;28;20017;-83
2022/05/01 04:07:11;;;;;;;28.65;16.70;;;;;;;5.96;100.00;102388.31;5066319;28;20114;-84
2022/05/01 04:09:37;;;;;;;29.63;16.75;;;;;;;5.93;100.00;102393.78;5063761;28;20056;-84
2022/05/01 04:12:04;;;;;;;30.45;17.23;;;;;;;5.90;100.00;102398.41;5067586;28;20125;-84
2022/05/01 04:14:30;;;;;;;36.42;17.90;;;;;;;5.81;100.00;102383.06;5049191;28;20021;-84
2022/05/01 04:16:58;;;;;;;28.15;18.13;;;;;;;5.81;100.00;102389.22;5063673;28;20047;-83
2022/05/01 04:19:24;;;;;;;34.22;18.92;;;;;;;5.76;100.00;102386.00;5075838;28;20020;-83
2022/05/01 04:21:52;;;;;;;32.38;19.05;;;;;;;5.69;100.00;102387.31;5090566;28;20077;-83
2022/05/01 04:24:17;;;;;;;30.77;18.65;;;;;;;5.64;100.00;102395.53;5103803;28;20020;-84
2022/05/01 04:26:42;;;;;;;31.38;18.05;;;;;;;5.62;100.00;102389.47;5103640;28;20043;-84
2022/05/01 04:31:52;;;;;;;28.75;18.33;;;;;;;5.65;100.00;102394.59;5093721;28;20477;-84
2022/05/01 04:34:17;;;;;;;29.88;18.27;;;;;;;5.64;100.00;102395.53;5090289;28;20024;-83
2022/05/01 04:36:43;;;;;;;31.75;18.42;;;;;;;5.62;100.00;102389.47;5069568;28;20441;-85
2022/05/01 04:39:08;;;;;;;34.33;18.70;;;;;;;5.61;100.00;102398.34;5083983;28;20254;-85
2022/05/01 04:41:34;;;;;;;32.22;18.58;;;;;;;5.64;100.00;102395.53;5065893;28;20050;-85
2022/05/01 04:44:10;;;;;;;32.92;18.67;;;;;;;5.66;100.00;102392.78;5067189;28;20092;-83
2022/05/01 04:46:35;;;;;;;31.85;17.95;;;;;;;5.68;100.00;102385.59;5074635;28;20746;-84
2022/05/01 04:49:01;;;;;;;32.50;18.95;;;;;;;5.66;100.00;102390.97;5062677;28;20032;-84
2022/05/01 04:51:29;;;;;;;33.63;18.65;;;;;;;5.64;100.00;102394.69;5044046;28;20042;-85
2022/05/01 04:53:54;;;;;;;33.25;18.88;;;;;;;5.67;100.00;102394.47;5026663;28;20492;-85
2022/05/01 04:59:07;;;;;;;34.95;19.05;;;;;;;5.75;100.00;102402.84;5042368;28;20052;-85
2022/05/01 05:01:33;;;;;;;30.75;18.88;;;;;;;5.77;100.00;102398.28;5043949;28;20077;-84
2022/05/01 05:03:59;;;;;;;30.90;18.35;;;;;;;5.82;100.00;102404.16;5024539;28;20029;-85
2022/05/01 05:06:27;;;;;;;30.75;18.42;;;;;;;5.78;100.00;102397.34;5025552;28;20031;-84
2022/05/01 05:11:40;;;;;;;31.45;18.17;;;;;;;5.70;100.00;102404.91;5043619;28;20059;-83
2022/05/01 05:14:06;;;;;;;28.70;17.88;;;;;;;5.62;100.00;102400.06;5025741;28;20029;-84
2022/05/01 05:16:32;;;;;;;29.13;18.75;;;;;;;5.55;100.00;102404.00;5043302;28;20071;-83
2022/05/01 05:18:57;;;;;;;32.30;18.50;;;;;;;5.58;100.00;102407.34;5052566;28;20040;-83
2022/05/01 05:21:23;;;;;;;31.20;18.08;;;;;;;5.58;100.00;102407.34;5062114;28;20028;-84
2022/05/01 05:23:48;;;;;;;28.63;17.77;;;;;;;5.61;100.00;102408.94;5062474;28;20032;-84
2022/05/01 05:26:13;;;;;;;30.90;18.70;;;;;;;5.64;100.00;102414.06;5061471;28;20051;-83
2022/05/01 05:28:44;;;;;;;29.58;18.42;;;;;;;5.71;100.00;102418.06;5065096;28;20024;-85
2022/05/01 05:31:10;;;;;;;34.73;19.30;;;;;;;5.73;100.00;102413.53;5059911;28;20032;-84
2022/05/01 05:33:35;;;;;;;34.60;19.23;;;;;;;5.74;100.00;102420.53;5061857;28;20788;-84
2022/05/01 05:36:00;;;;;;;32.13;19.65;;;;;;;5.78;100.00;102422.06;5043038;28;20017;-84
2022/05/01 05:38:25;;;;;;;36.08;19.88;;;;;;;5.77;100.00;102428.31;5042750;28;20052;-83
2022/05/01 05:40:51;;;;;;;35.03;18.67;;;;;;;5.79;100.00;102426.44;5062113;28;20025;-83
2022/05/01 05:43:19;;;;;;;35.88;20.17;;;;;;;5.89;100.00;102433.81;5067242;28;20357;-85
2022/05/01 05:45:45;;;;;;;33.30;19.17;;;;;;;6.02;100.00;102436.63;5062429;28;20111;-84
2022/05/01 05:48:10;;;;;;;34.55;19.88;;;;;;;6.11;100.00;102436.94;5044499;28;20050;-84
2022/05/01 05:50:36;;;;;;;32.80;19.27;;;;;;;6.24;100.00;102431.72;5060917;28;20036;-83
2022/05/01 05:53:03;;;;;;;37.50;21.15;;;;;;;6.33;100.00;102431.19;5061581;28;20024;-85
2022/05/01 05:55:33;;;;;;;32.03;19.33;;;;;;;6.43;100.00;102426.16;5042397;28;20060;-84
2022/05/01 05:57:58;;;;;;;33.42;19.60;;;;;;;6.59;100.00;102433.19;5061455;28;20023;-84
2022/05/01 06:00:24;;;;;;;31.42;20.08;;;;;;;6.71;100.00;102433.25;5061609;28;20021;-84
2022/05/01 06:02:49;;;;;;;34.88;21.25;;;;;;;6.78;100.00;102435.53;5059510;28;20017;-84
2022/05/01 06:05:14;;;;;;;37.33;21.48;;;;;;;6.89;100.00;102443.63;5067507;28;20103;-85
2022/05/01 06:07:40;;;;;;;34.58;20.15;;;;;;;7.07;100.00;102438.97;5060971;28;20355;-86
2022/05/01 06:10:05;;;;;;;35.85;21.77;;;;;;;7.28;100.00;102444.69;5060292;28;20083;-85
2022/05/01 06:12:31;;;;;;;35.30;20.85;;;;;;;7.46;100.00;102446.13;5059584;28;20029;-84
2022/05/01 06:14:56;;;;;;;41.83;24.55;;;;;;;7.52;100.00;102446.69;5060890;28;20471;-84
2022/05/01 06:17:21;;;;;;;37.28;22.00;;;;;;;7.58;100.00;102443.63;5059556;28;20482;-85
2022/05/01 06:19:47;;;;;;;34.10;20.58;;;;;;;7.66;100.00;102444.81;5075479;28;20027;-84
2022/05/01 06:22:12;;;;;;;40.95;21.95;;;;;;;7.84;100.00;102448.06;5080277;28;20043;-84
2022/05/01 06:24:38;;;;;;;35.22;20.10;;;;;;;7.98;100.00;102443.59;5061111;28;20020;-84
2022/05/01 06:27:03;;;;;;;31.38;20.15;;;;;;;8.18;100.00;102448.41;5063606;28;20024;-84
2022/05/01 06:29:29;;;;;;;40.40;21.25;;;;;;;8.34;100.00;102455.34;5060571;28;20117;-83
2022/05/01 06:31:54;;;;;;;35.33;20.98;;;;;;;8.41;100.00;102456.59;5060039;28;20047;-83
2022/05/01 06:34:19;;;;;;;35.38;21.05;;;;;;;8.50;100.00;102452.47;5060511;28;20036;-83
2022/05/01 06:36:47;;;;;;;35.95;21.35;;;;;;;8.56;100.00;102452.88;5060255;28;20116;-83
2022/05/01 06:39:14;;;;;;;34.97;21.98;;;;;;;8.69;100.00;102449.34;5059310;28;20171;-85
2022/05/01 06:41:40;;;;;;;34.35;20.77;;;;;;;8.80;100.00;102452.09;5060342;28;20025;-85
2022/05/01 06:44:05;;;;;;;38.75;20.45;;;;;;;8.90;100.00;102447.81;5060882;28;20097;-85
2022/05/01 06:46:30;;;;;;;32.70;19.92;;;;;;;8.98;100.00;102449.06;5060274;28;20050;-84
2022/05/01 06:48:56;;;;;;;33.85;19.95;;;;;;;9.07;100.00;102443.94;5061352;28;20060;-84
2022/05/01 06:51:21;;;;;;;30.55;19.25;;;;;;;9.18;100.00;102451.13;5040655;28;20021;-84
2022/05/01 06:53:46;;;;;;;32.72;19.15;;;;;;;9.21;100.00;102452.75;5060038;28;20121;-84
2022/05/01 06:56:12;;;;;;;29.27;18.80;;;;;;;9.33;100.00;102451.81;5063109;28;20553;-84
2022/05/01 06:58:37;;;;;;;30.80;18.50;;;;;;;9.47;100.00;102458.81;5063693;28;20040;-83
2022/05/01 07:01:02;;;;;;;32.75;19.15;;;;;;;9.58;100.00;102453.53;5045593;28;20033;-84
2022/05/01 07:03:28;;;;;;;30.20;18.67;;;;;;;9.60;100.00;102456.91;5045324;28;20025;-83
2022/05/01 07:05:53;;;;;;;28.58;19.00;;;;;;;9.58;100.00;102448.19;5060720;28;20028;-83
2022/05/01 07:08:19;;;;;;;36.38;18.75;;;;;;;9.57;100.00;102451.81;5062144;28;20020;-84
2022/05/01 07:10:44;;;;;;;32.95;18.27;;;;;;;9.58;100.00;102450.84;5063847;28;20315;-84
2022/05/01 07:13:10;;;;;;;31.20;19.38;;;;;;;9.56;100.00;102441.28;5065409;28;20103;-84
2022/05/01 07:15:39;;;;;;;33.13;18.40;;;;;;;9.46;100.00;102443.78;5048558;28;20036;-84
2022/05/01 07:18:04;;;;;;;28.98;17.02;;;;;;;9.47;100.00;102457.00;5078278;28;20028;-84
2022/05/01 07:20:33;;;;;;;26.15;17.80;;;;;;;9.50;100.00;102448.78;5080607;28;20025;-83
2022/05/01 07:22:58;;;;;;;28.83;18.40;;;;;;;9.56;100.00;102452.78;5083380;28;20141;-84
2022/05/01 07:25:23;;;;;;;29.00;18.08;;;;;;;9.64;100.00;102453.06;5081196;28;20017;-84
2022/05/01 07:27:49;;;;;;;30.25;17.85;;;;;;;9.71;100.00;102454.31;5046387;28;20039;-84
2022/05/01 07:30:14;;;;;;;31.38;18.10;;;;;;;9.75;100.00;102457.59;5062586;28;20112;-84
2022/05/01 07:32:40;;;;;;;30.35;17.60;;;;;;;9.81;100.00;102458.94;5061422;28;20055;-83
2022/05/01 07:35:06;;;;;;;30.00;18.02;;;;;;;9.85;100.00;102455.94;5062330;28;20025;-83
2022/05/01 07:37:31;;;;;;;26.73;17.45;;;;;;;9.84;100.00;102454.25;5060256;28;20537;-83
2022/05/01 07:39:57;;;;;;;26.60;17.88;;;;;;;9.96;100.00;102464.94;5043453;28;20112;-82
2022/05/01 07:42:23;;;;;;;27.50;18.02;;;;;;;10.03;100.00;102461.69;5061583;28;20439;-83
2022/05/01 07:44:49;;;;;;;31.50;18.98;;;;;;;10.13;100.00;102455.63;5061529;28;20124;-83
2022/05/01 07:47:14;;;;;;;27.00;17.25;;;;;;;10.28;100.00;102465.13;5060970;28;20031;-84
2022/05/01 07:49:39;;;;;;;26.67;15.88;;;;;;;10.40;100.00;102455.31;5061873;28;20280;-83
2022/05/01 07:52:05;;;;;;;29.73;17.52;;;;;;;10.56;100.00;102457.66;5042229;28;20086;-83
2022/05/01 07:54:31;;;;;;;32.85;17.25;;;;;;;10.74;100.00;102445.50;5061243;28;20032;-84
2022/05/01 07:56:56;;;;;;;28.20;17.08;;;;;;;10.94;100.00;102456.41;5061461;28;20105;-83
2022/05/01 07:59:21;;;;;;;24.70;16.23;;;;;;;11.14;100.00;102457.47;5043107;28;20433;-83
2022/05/01 08:01:47;;;;;;;25.88;16.98;;;;;;;11.26;98.40;102458.28;5061136;28;20028;-83
2022/05/01 08:04:28;;;;;;;26.98;15.75;;;;;;;11.46;99.70;102451.31;5061299;28;20381;-84
2022/05/01 08:06:55;;;;;;;25.27;15.43;;;;;;;11.58;96.47;102447.59;5060726;28;20147;-83
2022/05/01 08:09:20;;;;;;;28.95;15.52;;;;;;;11.71;97.46;102445.59;5060982;28;21096;-84
2022/05/01 08:11:46;;;;;;;22.17;14.98;;;;;;;11.76;93.33;102442.50;5065188;28;20100;-82
2022/05/01 08:14:12;;;;;;;24.23;15.15;;;;;;;11.74;90.31;102444.47;5061414;28;20487;-83
2022/05/01 08:16:39;;;;;;;25.88;14.45;;;;;;;11.94;92.98;102448.19;5060667;28;20056;-83
2022/05/01 08:21:49;;;;;;;21.92;12.90;;;;;;;12.52;90.13;102447.66;5061693;28;20074;-82
2022/05/01 08:24:15;;;;;;;19.23;12.45;;;;;;;12.35;85.66;102441.06;5061242;28;20475;-84
2022/05/01 08:26:46;;;;;;;21.05;12.25;;;;;;;12.38;83.85;102450.69;5061809;28;20033;-84
2022/05/01 08:29:12;;;;;;;19.80;11.90;;;;;;;12.39;83.99;102447.88;5062239;28;20099;-84
2022/05/01 08:31:37;;;;;;;19.95;11.63;;;;;;;12.50;85.29;102444.25;5061311;28;20036;-85
2022/05/01 08:34:03;;;;;;;21.98;11.82;;;;;;;12.62;81.18;102432.44;5062542;28;20029;-85
2022/05/01 08:36:29;;;;;;;28.10;12.45;;;;;;;12.82;85.33;102441.41;5049987;28;20094;-85
2022/05/01 08:38:54;;;;;;;16.98;10.80;;;;;;;12.97;78.64;102449.09;5039533;28;20107;-85
2022/05/01 08:41:20;;;;;;;16.23;10.15;;;;;;;12.94;78.51;102439.47;5041789;28;20057;-84
2022/05/01 08:43:46;;;;;;;19.02;10.90;;;;;;;12.92;83.58;102435.25;5040137;28;20055;-83
2022/05/01 08:46:24;;;;;;;17.58;10.20;;;;;;;13.10;77.99;102438.91;5040474;28;20029;-84
2022/05/01 08:49:04;;;;;;;14.43;9.45;;;;;;;13.15;77.08;102444.75;5041547;28;20028;-83
2022/05/01 08:51:35;;;;;;;16.13;9.98;;;;;;;13.05;76.36;102434.00;5021685;28;20104;-84
2022/05/01 08:54:14;;;;;;;13.48;8.88;;;;;;;13.02;78.11;102428.91;5025428;28;20039;-83
2022/05/01 08:56:41;;;;;;;13.50;7.47;;;;;;;13.35;72.23;102440.25;5042186;28;20206;-83
2022/05/01 08:59:09;;;;;;;14.73;8.55;;;;;;;13.55;71.40;102434.91;5041330;28;20033;-83
2022/05/01 09:01:36;;;;;;;12.32;7.28;;;;;;;13.53;68.32;102429.69;5040112;28;20471;-83
2022/05/01 09:04:04;;;;;;;10.93;6.30;;;;;;;13.57;68.38;102431.09;5040307;28;20029;-83
2022/05/01 09:06:30;;;;;;;12.13;7.05;;;;;;;13.65;66.22;102433.06;5021803;28;20029;-84
2022/05/01 09:08:57;;;;;;;16.60;9.23;;;;;;;13.69;68.21;102431.78;5040149;28;20056;-83
2022/05/01 09:14:07;;;;;;;12.05;7.70;;;;;;;13.65;66.70;102440.28;5040613;28;20044;-83
2022/05/01 09:16:36;;;;;;;17.20;8.23;;;;;;;13.62;66.98;102438.72;5039147;28;20024;-83
2022/05/01 09:19:02;;;;;;;14.18;8.20;;;;;;;13.69;67.02;102431.78;5040651;28;20483;-83
2022/05/01 09:21:47;;;;;;;12.00;6.90;;;;;;;13.70;60.80;102424.59;5039721;28;20039;-84
2022/05/01 09:24:12;;;;;;;11.30;7.15;;;;;;;13.64;58.05;102427.84;5040200;28;20072;-84
2022/05/01 09:26:38;;;;;;;12.75;7.35;;;;;;;13.76;62.12;102435.63;5038328;28;20108;-84
2022/05/01 09:29:03;;;;;;;9.63;5.78;;;;;;;13.86;56.83;102432.06;5040078;28;20108;-84
2022/05/01 09:31:50;;;;;;;9.00;4.70;;;;;;;13.95;56.34;102432.03;5039164;28;20075;-83
2022/05/01 09:34:28;;;;;;;17.17;7.15;;;;;;;13.89;56.85;102435.28;5039862;28;20153;-84
2022/05/01 09:36:54;;;;;;;13.02;6.72;;;;;;;13.72;59.68;102430.66;5039025;28;20029;-84
2022/05/01 09:39:25;;;;;;;12.68;7.18;;;;;;;13.84;61.05;102437.56;5040259;28;20275;-84
2022/05/01 09:41:52;;;;;;;10.23;6.53;;;;;;;13.92;57.64;102429.66;5039942;28;20036;-83
2022/05/01 09:44:19;;;;;;;11.35;6.70;;;;;;;13.98;58.07;102436.25;5038935;28;20028;-83
2022/05/01 09:46:46;;;;;;;10.30;6.68;;;;;;;14.06;55.65;102435.56;5037044;28;20777;-84
2022/05/01 09:49:14;;;;;;;10.57;6.38;;;;;;;13.93;53.31;102433.16;5039939;28;20418;-84
2022/05/01 09:51:47;;;;;;;12.60;6.07;;;;;;;14.01;56.15;102427.91;5037176;28;20253;-84
2022/05/01 09:54:24;;;;;;;10.48;5.75;;;;;;;14.00;53.23;102420.84;5039018;28;20021;-83
2022/05/01 09:56:55;;;;;;;13.40;6.40;;;;;;;14.12;52.96;102430.44;5039050;28;20156;-84
2022/05/01 09:59:23;;;;;;;11.65;5.93;;;;;;;14.20;53.02;102435.06;5039589;28;20028;-83
2022/05/01 10:02:03;;;;;;;7.32;5.18;;;;;;;14.22;51.72;102430.41;5039096;28;20028;-84
2022/05/01 10:04:33;;;;;;;8.88;5.07;;;;;;;14.53;52.58;102433.69;5039136;28;20157;-84
2022/05/01 10:07:00;;;;;;;9.10;5.22;;;;;;;14.78;47.66;102433.19;5021424;28;20462;-83
2022/05/01 10:09:28;;;;;;;8.25;5.07;;;;;;;14.94;46.83;102427.16;5041069;28;20124;-83
2022/05/01 10:11:55;;;;;;;10.23;5.72;;;;;;;15.10;49.75;102419.25;5037438;28;20047;-84
2022/05/01 10:14:22;;;;;;;9.48;5.55;;;;;;;15.19;43.51;102421.03;5038724;28;20021;-84
2022/05/01 10:16:48;;;;;;;8.60;5.30;;;;;;;15.31;44.02;102418.97;5038090;28;20021;-83
2022/05/01 10:19:18;;;;;;;8.95;6.00;;;;;;;15.73;45.68;102412.06;5039210;28;20031;-84
2022/05/01 10:21:52;;;;;;;9.85;6.00;;;;;;;16.33;49.36;102422.94;5039193;28;20048;-83
2022/05/01 10:24:19;;;;;;;8.68;5.63;;;;;;;16.70;47.04;102416.38;5039758;28;20037;-84
2022/05/01 10:27:02;;;;;;;12.60;6.07;;;;;;;17.30;49.28;102415.34;5040373;28;20021;-83
2022/05/01 10:33:14;;;;;;;10.35;5.97;;;;;;;17.61;45.50;102405.72;5035288;28;20498;-84
2022/05/01 10:35:54;;;;;;;11.57;6.22;;;;;;;17.63;44.61;102409.09;5042951;28;20295;-83
2022/05/01 10:38:26;;;;;;;11.48;6.47;;;;;;;17.46;46.32;102403.69;5059127;28;20111;-84
2022/05/01 10:41:00;;;;;;;9.73;6.50;;;;;;;17.39;45.90;102399.16;5058369;28;20029;-84
2022/05/01 10:43:35;;;;;;;11.23;6.47;;;;;;;17.31;43.94;102394.56;5059768;28;20474;-85
2022/05/01 10:46:22;;;;;;;13.55;6.53;;;;;;;17.12;43.81;102396.59;5058980;28;20028;-83
2022/05/01 10:48:48;;;;;;;10.30;6.78;;;;;;;16.89;44.69;102390.97;5053926;28;20032;-84
2022/05/01 10:51:30;;;;;;;11.27;6.45;;;;;;;16.80;47.50;102394.63;5060608;28;20483;-83
2022/05/01 10:54:10;;;;;;;11.55;7.00;;;;;;;16.64;47.84;102384.63;5041391;28;20025;-83
2022/05/01 10:56:37;;;;;;;8.68;6.75;;;;;;;16.76;45.40;102386.00;5063798;28;20020;-83
2022/05/01 10:59:30;;;;;;;9.70;6.57;;;;;;;16.85;49.25;102392.31;5082106;28;20028;-83
2022/05/01 11:02:01;;;;;;;12.07;6.38;;;;;;;16.96;44.48;102385.78;5081059;28;20038;-83
2022/05/01 11:04:32;;;;;;;10.33;6.63;;;;;;;16.84;44.76;102381.66;5081007;28;20024;-83
2022/05/01 11:06:58;;;;;;;10.60;6.93;;;;;;;16.85;46.67;102384.22;5081265;28;20121;-83
2022/05/01 11:09:25;;;;;;;8.93;6.50;;;;;;;16.69;43.76;102376.06;5057481;28;20048;-83
2022/05/01 11:11:56;;;;;;;10.85;6.28;;;;;;;16.59;44.58;102368.09;5058715;28;20039;-82
2022/05/01 11:14:35;;;;;;;11.13;7.15;;;;;;;16.44;44.96;102375.97;5058389;28;20303;-83
2022/05/01 11:17:02;;;;;;;11.50;7.18;;;;;;;15.95;43.26;102379.25;5059561;28;20039;-84
2022/05/01 11:19:50;;;;;;;13.30;6.63;;;;;;;15.89;44.90;102379.91;5043311;28;20042;-84
2022/05/01 11:22:16;;;;;;;12.18;6.97;;;;;;;15.67;43.95;102370.44;5038302;28;20068;-84
2022/05/01 11:24:42;;;;;;;13.07;6.88;;;;;;;15.63;46.50;102369.06;5036092;28;20198;-84
2022/05/01 11:27:13;;;;;;;12.50;6.93;;;;;;;15.66;47.31;102366.94;5018849;28;20111;-84
2022/05/01 11:29:39;;;;;;;10.88;7.35;;;;;;;15.59;46.53;102365.00;5018030;28;20029;-84
2022/05/01 11:32:24;;;;;;;12.20;6.72;;;;;;;15.58;48.85;102363.31;5017797;28;20504;-84
2022/05/01 11:34:54;;;;;;;10.82;7.03;;;;;;;15.58;50.92;102361.47;5019068;28;20140;-83
2022/05/01 11:37:21;;;;;;;13.50;7.05;;;;;;;15.37;45.58;102358.25;5017833;28;20025;-83
2022/05/01 11:39:47;;;;;;;10.98;7.18;;;;;;;15.18;46.61;102356.59;5033683;28;20030;-83
2022/05/01 11:42:38;;;;;;;12.75;7.43;;;;;;;15.30;50.34;102349.97;5022551;28;20467;-84
2022/05/01 11:45:04;;;;;;;;;;;;;;;15.64;50.39;102349.22;5018640;28;20037;-83
2022/05/01 11:47:34;;;;;;;13.50;7.13;;;;;;;15.55;47.67;102342.09;5036451;28;20167;-84